createdAt,value
2019-01-10T00:00:50.720Z,4.01
2019-01-10T00:03:16.402Z,3.97
2019-01-10T00:05:40.716Z,4.32
2019-01-10T00:08:05.206Z,4.25
2019-01-10T00:10:29.589Z,4.34
2019-01-10T00:12:54.024Z,4.33
2019-01-10T00:15:20.022Z,4.17
2019-01-10T00:17:44.426Z,4.06
2019-01-10T00:20:10.953Z,4.22
2019-01-10T00:22:35.350Z,3.90
2019-01-10T00:25:02.796Z,4.04
2019-01-10T00:27:27.181Z,3.83
2019-01-10T00:29:51.599Z,4.25
2019-01-10T00:32:15.996Z,4.45
2019-01-10T00:34:40.412Z,3.97
2019-01-10T00:37:04.876Z,4.23
2019-01-10T00:39:29.264Z,4.40
2019-01-10T00:41:53.681Z,3.98
2019-01-10T00:44:18.068Z,3.86
2019-01-10T00:46:42.494Z,4.41
2019-01-10T00:49:06.898Z,4.54
2019-01-10T00:51:31.299Z,4.11
2019-01-10T00:53:55.689Z,4.41
2019-01-10T00:56:20.107Z,4.31
2019-01-10T00:58:44.497Z,4.07
2019-01-10T01:01:08.945Z,4.18
2019-01-10T01:03:33.342Z,3.67
2019-01-10T01:05:57.733Z,3.62
2019-01-10T01:08:22.227Z,3.45
2019-01-10T01:10:46.621Z,3.54
2019-01-10T01:13:11.039Z,3.74
2019-01-10T01:15:35.448Z,4.03
2019-01-10T01:17:59.986Z,4.33
2019-01-10T01:20:24.999Z,3.87
2019-01-10T01:22:49.475Z,3.92
2019-01-10T01:25:14.426Z,3.86
2019-01-10T01:27:38.940Z,3.94
2019-01-10T01:30:05.074Z,4.30
2019-01-10T01:32:29.472Z,3.77
2019-01-10T01:34:53.971Z,3.85
2019-01-10T01:37:18.346Z,3.84
2019-01-10T01:39:42.747Z,3.97
2019-01-10T01:42:07.131Z,4.00
2019-01-10T01:44:31.554Z,4.00
2019-01-10T01:46:56.726Z,3.57
2019-01-10T01:49:21.158Z,3.67
2019-01-10T01:51:45.557Z,4.02
2019-01-10T01:54:09.957Z,3.42
2019-01-10T01:56:34.362Z,3.75
2019-01-10T01:58:59.889Z,4.11
2019-01-10T02:01:24.338Z,4.12
2019-01-10T02:03:48.808Z,3.78
2019-01-10T02:06:13.217Z,3.41
2019-01-10T02:08:37.593Z,4.22
2019-01-10T02:11:02.085Z,4.07
2019-01-10T02:13:26.470Z,4.02
2019-01-10T02:15:50.886Z,4.19
2019-01-10T02:18:15.292Z,3.59
2019-01-10T02:20:39.676Z,3.46
2019-01-10T02:23:04.165Z,4.11
2019-01-10T02:25:28.546Z,3.73
2019-01-10T02:27:52.977Z,3.32
2019-01-10T02:30:22.569Z,2.86
2019-01-10T02:32:46.981Z,3.26
2019-01-10T02:35:11.551Z,3.50
2019-01-10T02:37:35.947Z,3.28
2019-01-10T02:40:00.472Z,3.08
2019-01-10T02:42:24.845Z,2.88
2019-01-10T02:44:49.230Z,3.41
2019-01-10T02:47:13.630Z,3.11
2019-01-10T02:49:38.043Z,3.05
2019-01-10T02:52:02.427Z,3.64
2019-01-10T02:54:26.834Z,3.33
2019-01-10T02:56:51.212Z,3.76
2019-01-10T02:59:15.636Z,3.27
2019-01-10T03:01:40.025Z,2.91
2019-01-10T03:04:04.777Z,2.81
2019-01-10T03:06:29.163Z,2.97
2019-01-10T03:08:53.717Z,3.17
2019-01-10T03:11:18.174Z,2.61
2019-01-10T03:13:42.549Z,2.75
2019-01-10T03:16:07.025Z,2.50
2019-01-10T03:18:31.418Z,3.24
2019-01-10T03:20:55.855Z,3.13
2019-01-10T03:23:20.237Z,2.60
2019-01-10T03:25:44.656Z,3.25
2019-01-10T03:28:09.068Z,3.44
2019-01-10T03:30:33.460Z,2.65
2019-01-10T03:32:57.851Z,3.16
2019-01-10T03:35:22.245Z,2.83
2019-01-10T03:37:46.654Z,3.07
2019-01-10T03:40:13.928Z,2.75
2019-01-10T03:42:38.343Z,3.61
2019-01-10T03:45:02.722Z,3.50
2019-01-10T03:47:27.143Z,3.25
2019-01-10T03:49:51.536Z,3.04
2019-01-10T03:52:15.954Z,3.51
2019-01-10T03:54:40.424Z,3.75
2019-01-10T03:57:04.839Z,3.67
2019-01-10T03:59:29.391Z,3.70
2019-01-10T04:01:53.794Z,3.36
2019-01-10T04:04:18.194Z,3.65
2019-01-10T04:06:42.595Z,3.52
2019-01-10T04:09:07.538Z,3.63
2019-01-10T04:11:31.934Z,3.92
2019-01-10T04:13:57.529Z,3.54
2019-01-10T04:16:22.114Z,2.98
2019-01-10T04:18:46.530Z,2.99
2019-01-10T04:21:16.925Z,2.71
2019-01-10T04:23:37.075Z,3.44
2019-01-10T04:26:01.490Z,3.52
2019-01-10T04:28:25.891Z,3.30
2019-01-10T04:30:50.286Z,3.56
2019-01-10T04:33:14.672Z,3.60
2019-01-10T04:35:39.083Z,3.44
2019-01-10T04:38:03.479Z,3.69
2019-01-10T04:40:27.893Z,3.57
2019-01-10T04:42:52.280Z,3.87
2019-01-10T04:45:16.785Z,3.76
2019-01-10T04:47:41.180Z,3.54
2019-01-10T04:50:11.207Z,3.76
2019-01-10T04:52:35.608Z,3.76
2019-01-10T04:54:59.998Z,3.60
2019-01-10T04:57:24.408Z,3.71
2019-01-10T04:59:48.830Z,3.47
2019-01-10T05:02:18.238Z,3.28
2019-01-10T05:04:39.357Z,3.26
2019-01-10T05:07:04.235Z,3.53
2019-01-10T05:09:28.632Z,3.73
2019-01-10T05:11:53.044Z,3.35
2019-01-10T05:14:17.453Z,3.45
2019-01-10T05:16:41.835Z,3.39
2019-01-10T05:19:06.243Z,3.35
2019-01-10T05:21:30.644Z,2.79
2019-01-10T05:23:55.063Z,2.59
2019-01-10T05:26:19.447Z,3.18
2019-01-10T05:28:43.868Z,2.90
2019-01-10T05:31:08.257Z,3.31
2019-01-10T05:33:32.684Z,3.03
2019-01-10T05:35:57.076Z,3.60
2019-01-10T05:38:21.488Z,3.74
2019-01-10T05:40:45.902Z,3.75
2019-01-10T05:43:10.293Z,3.36
2019-01-10T05:45:34.715Z,3.78
2019-01-10T05:47:59.113Z,3.60
2019-01-10T05:50:23.518Z,3.86
2019-01-10T05:52:47.917Z,3.88
2019-01-10T05:55:14.560Z,3.78
2019-01-10T05:57:38.957Z,3.96
2019-01-10T06:00:05.153Z,3.62
2019-01-10T06:02:29.535Z,3.94
2019-01-10T06:04:53.925Z,3.52
2019-01-10T06:07:18.337Z,3.80
2019-01-10T06:09:42.729Z,3.92
2019-01-10T06:12:07.154Z,3.80
2019-01-10T06:14:35.657Z,3.80
2019-01-10T06:16:57.654Z,3.82
2019-01-10T06:19:26.731Z,4.03
2019-01-10T06:21:48.139Z,3.75
2019-01-10T06:24:12.521Z,3.79
2019-01-10T06:26:37.018Z,3.83
2019-01-10T06:29:01.427Z,3.97
2019-01-10T06:31:25.831Z,3.97
2019-01-10T06:33:50.241Z,4.13
2019-01-10T06:36:14.819Z,4.00
2019-01-10T06:38:39.226Z,4.01
2019-01-10T06:41:03.684Z,4.13
2019-01-10T06:43:28.106Z,3.98
2019-01-10T06:45:52.485Z,3.92
2019-01-10T06:48:16.898Z,3.82
2019-01-10T06:50:41.300Z,3.69
2019-01-10T06:53:05.687Z,4.00
2019-01-10T06:55:30.168Z,3.91
2019-01-10T06:57:54.565Z,3.56
2019-01-10T07:00:23.434Z,3.07
2019-01-10T07:02:47.966Z,3.65
2019-01-10T07:05:12.383Z,4.00
2019-01-10T07:07:36.757Z,3.81
2019-01-10T07:10:01.194Z,4.08
2019-01-10T07:12:25.575Z,4.02
2019-01-10T07:14:53.721Z,3.25
2019-01-10T07:17:16.172Z,3.83
2019-01-10T07:19:46.286Z,3.67
2019-01-10T07:22:10.705Z,3.69
2019-01-10T07:24:35.107Z,3.98
2019-01-10T07:26:59.599Z,3.55
2019-01-10T07:29:23.998Z,3.31
2019-01-10T07:31:48.420Z,2.83
2019-01-10T07:34:12.806Z,2.57
2019-01-10T07:36:37.204Z,3.61
2019-01-10T07:39:01.616Z,3.45
2019-01-10T07:41:26.014Z,3.72
2019-01-10T07:43:50.410Z,4.06
2019-01-10T07:46:14.804Z,3.49
2019-01-10T07:48:39.209Z,3.81
2019-01-10T07:51:03.668Z,3.34
2019-01-10T07:53:28.077Z,2.95
2019-01-10T07:55:52.466Z,3.82
2019-01-10T07:58:16.899Z,3.81
2019-01-10T08:00:41.292Z,3.52
2019-01-10T08:03:05.939Z,3.30
2019-01-10T08:05:30.330Z,3.69
2019-01-10T08:07:54.725Z,3.69
2019-01-10T08:10:19.134Z,4.22
2019-01-10T08:12:43.589Z,4.23
2019-01-10T08:15:11.904Z,4.00
2019-01-10T08:17:36.509Z,3.63
2019-01-10T08:20:00.973Z,3.57
2019-01-10T08:22:27.974Z,3.75
2019-01-10T08:24:51.409Z,3.65
2019-01-10T08:27:15.829Z,3.60
2019-01-10T08:29:40.222Z,3.81
2019-01-10T08:32:04.641Z,3.99
2019-01-10T08:34:29.038Z,3.98
2019-01-10T08:36:53.459Z,3.31
2019-01-10T08:39:17.870Z,2.92
2019-01-10T08:41:42.266Z,3.50
2019-01-10T08:44:06.719Z,3.85
2019-01-10T08:46:31.154Z,3.75
2019-01-10T08:48:55.622Z,3.87
2019-01-10T08:51:20.009Z,4.06
2019-01-10T08:53:53.565Z,4.09
2019-01-10T08:56:10.497Z,3.99
2019-01-10T08:58:34.905Z,4.22
2019-01-10T09:00:59.327Z,3.98
2019-01-10T09:03:23.752Z,4.46
2019-01-10T09:05:48.140Z,4.19
2019-01-10T09:08:12.551Z,4.16
2019-01-10T09:10:36.952Z,3.97
2019-01-10T09:13:01.341Z,3.83
2019-01-10T09:15:34.325Z,3.51
2019-01-10T09:17:52.029Z,4.12
2019-01-10T09:20:16.584Z,4.25
2019-01-10T09:22:40.978Z,4.05
2019-01-10T09:25:05.967Z,3.82
2019-01-10T09:27:30.378Z,4.37
2019-01-10T09:29:54.806Z,4.71
2019-01-10T09:32:19.223Z,4.68
2019-01-10T09:34:43.644Z,4.53
2019-01-10T09:37:08.035Z,4.64
2019-01-10T09:39:32.422Z,4.29
2019-01-10T09:41:56.903Z,3.88
2019-01-10T09:44:21.299Z,4.30
2019-01-10T09:46:45.710Z,4.41
2019-01-10T09:49:10.087Z,4.72
2019-01-10T09:51:34.515Z,4.91
2019-01-10T09:53:58.894Z,4.27
2019-01-10T09:56:23.307Z,4.79
2019-01-10T09:58:47.684Z,4.61
2019-01-10T10:01:12.110Z,4.22
2019-01-10T10:03:36.561Z,4.07
2019-01-10T10:06:07.506Z,4.53
2019-01-10T10:08:27.065Z,4.91
2019-01-10T10:10:51.444Z,5.04
2019-01-10T10:13:15.844Z,4.43
2019-01-10T10:15:40.343Z,3.90
2019-01-10T10:18:04.725Z,4.17
2019-01-10T10:20:29.283Z,4.90
2019-01-10T10:22:56.074Z,4.81
2019-01-10T10:25:20.543Z,4.55
2019-01-10T10:27:44.944Z,4.70
2019-01-10T10:30:15.129Z,4.74
2019-01-10T10:32:39.520Z,4.99
2019-01-10T10:35:05.018Z,4.87
2019-01-10T10:37:29.401Z,5.10
2019-01-10T10:39:53.833Z,4.56
2019-01-10T10:42:18.213Z,5.20
2019-01-10T10:44:42.721Z,4.76
2019-01-10T10:47:07.152Z,4.90
2019-01-10T10:49:31.562Z,5.13
2019-01-10T10:51:55.961Z,4.82
2019-01-10T10:54:20.351Z,4.48
2019-01-10T10:56:44.761Z,4.01
2019-01-10T10:59:09.162Z,4.81
2019-01-10T11:01:33.596Z,4.79
2019-01-10T11:03:57.996Z,4.42
2019-01-10T11:06:22.406Z,4.62
2019-01-10T11:08:46.787Z,4.73
2019-01-10T11:11:11.198Z,4.98
2019-01-10T11:13:35.612Z,4.91
2019-01-10T11:16:00.071Z,5.30
2019-01-10T11:18:24.475Z,4.56
2019-01-10T11:20:49.020Z,4.51
2019-01-10T11:23:13.422Z,4.95
2019-01-10T11:25:37.828Z,4.73
2019-01-10T11:28:02.421Z,4.85
2019-01-10T11:30:26.839Z,4.85
2019-01-10T11:32:53.603Z,4.70
2019-01-10T11:35:17.479Z,4.10
2019-01-10T11:37:41.887Z,4.29
2019-01-10T11:40:09.675Z,4.93
2019-01-10T11:42:34.103Z,4.36
2019-01-10T11:44:58.496Z,4.43
2019-01-10T11:47:22.913Z,4.49
2019-01-10T11:49:47.356Z,4.87
2019-01-10T11:52:11.735Z,4.76
2019-01-10T11:54:36.198Z,4.72
2019-01-10T11:57:00.601Z,4.85
2019-01-10T11:59:25.001Z,5.07
2019-01-10T12:01:49.394Z,4.54
2019-01-10T12:04:13.801Z,4.08
2019-01-10T12:06:38.265Z,4.24
2019-01-10T12:09:02.645Z,4.26
2019-01-10T12:11:27.133Z,4.40
2019-01-10T12:13:51.529Z,3.91
2019-01-10T12:16:15.950Z,4.48
2019-01-10T12:18:40.331Z,4.17
2019-01-10T12:21:04.767Z,4.06
2019-01-10T12:23:29.146Z,4.35
2019-01-10T12:25:53.561Z,4.39
2019-01-10T12:28:17.969Z,4.22
2019-01-10T12:30:42.405Z,4.53
2019-01-10T12:33:06.890Z,4.34
2019-01-10T12:35:31.297Z,4.67
2019-01-10T12:37:55.792Z,3.84
2019-01-10T12:40:20.259Z,3.45
2019-01-10T12:42:45.104Z,3.70
2019-01-10T12:45:12.112Z,4.37
2019-01-10T12:47:36.536Z,3.66
2019-01-10T12:50:01.015Z,4.45
2019-01-10T12:52:25.438Z,3.56
2019-01-10T12:54:49.861Z,4.02
2019-01-10T12:57:14.279Z,4.61
2019-01-10T12:59:38.686Z,4.44
2019-01-10T13:02:03.094Z,4.23
2019-01-10T13:04:27.520Z,3.27
2019-01-10T13:06:51.922Z,3.29
2019-01-10T13:09:16.342Z,3.49
2019-01-10T13:11:40.752Z,4.18
2019-01-10T13:14:05.657Z,3.61
2019-01-10T13:16:30.010Z,3.82
2019-01-10T13:18:54.421Z,3.68
2019-01-10T13:21:18.842Z,3.93
2019-01-10T13:23:45.558Z,4.39
2019-01-10T13:26:09.967Z,3.54
2019-01-10T13:28:34.353Z,3.78
2019-01-10T13:30:58.781Z,3.78
2019-01-10T13:33:23.159Z,4.09
2019-01-10T13:35:47.567Z,2.79
2019-01-10T13:38:11.969Z,3.83
2019-01-10T13:40:36.379Z,3.41
2019-01-10T13:43:00.765Z,3.08
2019-01-10T13:45:25.519Z,3.31
2019-01-10T13:47:50.164Z,3.72
2019-01-10T13:50:17.298Z,3.13
2019-01-10T13:52:41.724Z,4.26
2019-01-10T13:55:08.657Z,3.48
2019-01-10T13:57:33.210Z,4.35
2019-01-10T13:59:57.629Z,3.88
2019-01-10T14:02:24.427Z,3.72
2019-01-10T14:04:48.828Z,3.61
2019-01-10T14:07:13.259Z,3.64
2019-01-10T14:09:37.663Z,3.35
2019-01-10T14:12:02.926Z,3.31
2019-01-10T14:14:27.315Z,3.41
2019-01-10T14:16:51.825Z,3.18
2019-01-10T14:19:16.257Z,3.48
2019-01-10T14:21:46.433Z,3.14
2019-01-10T14:24:06.754Z,2.73
2019-01-10T14:26:31.254Z,3.03
2019-01-10T14:28:55.732Z,2.72
2019-01-10T14:31:20.124Z,2.93
2019-01-10T14:33:44.536Z,2.73
2019-01-10T14:36:08.939Z,3.17
2019-01-10T14:38:33.353Z,2.79
2019-01-10T14:40:57.958Z,2.81
2019-01-10T14:43:22.345Z,3.09
2019-01-10T14:45:46.838Z,3.27
2019-01-10T14:48:11.298Z,2.58
2019-01-10T14:50:36.052Z,2.89
2019-01-10T14:53:00.461Z,2.88
2019-01-10T14:55:24.892Z,2.94
2019-01-10T14:57:49.359Z,2.83
2019-01-10T15:00:19.168Z,2.69
2019-01-10T15:02:43.619Z,2.93
2019-01-10T15:05:08.180Z,2.80
2019-01-10T15:07:32.609Z,2.75
2019-01-10T15:09:57.014Z,2.96
2019-01-10T15:12:21.453Z,2.68
2019-01-10T15:14:45.835Z,2.84
2019-01-10T15:17:13.773Z,3.37
2019-01-10T15:19:36.341Z,3.70
2019-01-10T15:22:00.794Z,3.53
2019-01-10T15:24:25.207Z,3.42
2019-01-10T15:26:49.632Z,3.50
2019-01-10T15:29:14.017Z,3.63
2019-01-10T15:31:38.427Z,3.74
2019-01-10T15:34:02.831Z,3.64
2019-01-10T15:36:27.300Z,3.69
2019-01-10T15:38:51.709Z,4.00
2019-01-10T15:41:16.104Z,3.96
2019-01-10T15:43:40.594Z,4.15
2019-01-10T15:46:04.990Z,3.96
2019-01-10T15:48:29.395Z,4.02
2019-01-10T15:50:53.803Z,4.17
2019-01-10T15:53:18.254Z,4.20
2019-01-10T15:55:42.637Z,4.02
2019-01-10T15:58:07.054Z,4.15
2019-01-10T16:00:31.487Z,3.80
2019-01-10T16:02:55.887Z,3.67
2019-01-10T16:05:20.398Z,4.02
2019-01-10T16:07:44.790Z,4.02
2019-01-10T16:10:12.046Z,3.99
2019-01-10T16:12:36.437Z,4.01
2019-01-10T16:15:00.886Z,3.96
2019-01-10T16:17:25.615Z,3.87
2019-01-10T16:19:50.165Z,4.04
2019-01-10T16:22:14.591Z,3.77
2019-01-10T16:24:38.990Z,3.88
2019-01-10T16:27:03.442Z,4.07
2019-01-10T16:29:27.841Z,3.49
2019-01-10T16:31:52.278Z,3.75
2019-01-10T16:34:16.697Z,3.62
2019-01-10T16:36:41.123Z,3.72
2019-01-10T16:39:07.579Z,3.75
2019-01-10T16:41:32.022Z,3.64
2019-01-10T16:43:56.411Z,3.58
2019-01-10T16:46:20.829Z,3.88
2019-01-10T16:48:45.256Z,3.65
2019-01-10T16:51:09.658Z,3.73
2019-01-10T16:53:34.053Z,3.49
2019-01-10T16:55:58.452Z,3.67
2019-01-10T16:58:22.890Z,3.51
2019-01-10T17:00:47.743Z,3.49
2019-01-10T17:03:12.206Z,3.03
2019-01-10T17:05:36.675Z,3.32
2019-01-10T17:08:01.188Z,3.54
2019-01-10T17:10:25.671Z,3.32
2019-01-10T17:12:50.084Z,3.36
2019-01-10T17:15:15.146Z,3.27
2019-01-10T17:17:39.554Z,3.62
2019-01-10T17:20:05.672Z,3.42
2019-01-10T17:22:30.072Z,3.66
2019-01-10T17:24:54.496Z,3.37
2019-01-10T17:27:18.902Z,3.40
2019-01-10T17:29:43.311Z,3.30
2019-01-10T17:32:07.732Z,3.63
2019-01-10T17:34:32.137Z,3.40
2019-01-10T17:36:56.536Z,3.24
2019-01-10T17:39:20.934Z,3.39
2019-01-10T17:41:45.343Z,3.27
2019-01-10T17:44:09.737Z,3.82
2019-01-10T17:46:34.158Z,3.47
2019-01-10T17:48:58.561Z,3.23
2019-01-10T17:51:23.000Z,2.93
2019-01-10T17:53:47.400Z,2.95
2019-01-10T17:56:11.828Z,2.94
2019-01-10T17:58:36.230Z,2.96
2019-01-10T18:01:00.653Z,2.80
2019-01-10T18:03:25.083Z,3.26
2019-01-10T18:05:49.510Z,2.94
2019-01-10T18:08:13.939Z,2.86
2019-01-10T18:10:38.338Z,3.26
2019-01-10T18:13:02.736Z,3.22
2019-01-10T18:15:28.298Z,3.10
2019-01-10T18:17:52.784Z,3.12
2019-01-10T18:20:19.931Z,2.89
2019-01-10T18:22:44.427Z,3.09
2019-01-10T18:25:11.004Z,3.09
2019-01-10T18:27:35.403Z,3.30
2019-01-10T18:29:59.849Z,3.10
2019-01-10T18:32:24.283Z,3.04
2019-01-10T18:34:48.986Z,2.96
2019-01-10T18:37:13.416Z,2.97
2019-01-10T18:39:37.857Z,3.01
2019-01-10T18:42:02.242Z,2.95
2019-01-10T18:44:26.682Z,3.16
2019-01-10T18:46:51.075Z,3.11
2019-01-10T18:49:15.573Z,3.18
2019-01-10T18:51:39.976Z,2.97
2019-01-10T18:54:04.454Z,3.24
2019-01-10T18:56:28.848Z,3.33
2019-01-10T18:58:53.266Z,3.17
2019-01-10T19:01:17.673Z,3.56
2019-01-10T19:03:42.076Z,3.50
2019-01-10T19:06:06.529Z,3.80
2019-01-10T19:08:31.720Z,3.10
2019-01-10T19:10:56.154Z,3.07
2019-01-10T19:13:20.568Z,3.56
2019-01-10T19:15:44.965Z,3.51
2019-01-10T19:18:09.390Z,3.49
2019-01-10T19:20:33.789Z,3.50
2019-01-10T19:22:58.391Z,3.70
2019-01-10T19:25:22.786Z,3.70
2019-01-10T19:27:47.228Z,3.51
2019-01-10T19:30:14.551Z,3.46
2019-01-10T19:32:39.040Z,3.46
2019-01-10T19:35:04.105Z,3.42
2019-01-10T19:37:28.518Z,3.32
2019-01-10T19:39:53.372Z,3.43
2019-01-10T19:42:18.007Z,3.20
2019-01-10T19:44:42.467Z,3.28
2019-01-10T19:47:06.949Z,3.60
2019-01-10T19:49:31.393Z,3.44
2019-01-10T19:51:56.559Z,3.02
2019-01-10T19:54:21.000Z,3.07
2019-01-10T19:56:45.433Z,3.17
2019-01-10T19:59:09.876Z,3.19
2019-01-10T20:01:37.648Z,3.20
2019-01-10T20:04:00.393Z,2.99
2019-01-10T20:06:24.841Z,3.13
2019-01-10T20:08:49.273Z,3.21
2019-01-10T20:11:13.746Z,3.27
2019-01-10T20:13:38.151Z,3.35
2019-01-10T20:16:04.394Z,3.16
2019-01-10T20:18:28.848Z,3.27
2019-01-10T20:20:53.416Z,3.24
2019-01-10T20:23:17.905Z,3.06
2019-01-10T20:25:42.333Z,2.89
2019-01-10T20:28:06.858Z,3.12
2019-01-10T20:30:31.281Z,3.33
2019-01-10T20:32:55.747Z,2.83
2019-01-10T20:35:20.229Z,3.12
2019-01-10T20:37:44.754Z,2.85
2019-01-10T20:40:14.571Z,3.13
2019-01-10T20:42:38.981Z,2.48
2019-01-10T20:45:04.483Z,2.83
2019-01-10T20:47:28.887Z,2.63
2019-01-10T20:49:53.355Z,2.77
2019-01-10T20:52:17.771Z,2.47
2019-01-10T20:54:42.167Z,2.26
2019-01-10T20:57:06.606Z,2.29
2019-01-10T20:59:31.029Z,2.56
2019-01-10T21:01:55.473Z,2.30
2019-01-10T21:04:19.952Z,2.04
2019-01-10T21:06:44.401Z,1.90
2019-01-10T21:09:13.014Z,1.86
2019-01-10T21:11:35.211Z,2.12
2019-01-10T21:13:59.684Z,2.00
2019-01-10T21:16:24.069Z,2.31
2019-01-10T21:18:48.505Z,2.22
2019-01-10T21:21:12.904Z,2.43
2019-01-10T21:23:37.358Z,2.33
2019-01-10T21:26:01.764Z,1.96
2019-01-10T21:28:26.343Z,2.05
2019-01-10T21:30:50.837Z,2.22
2019-01-10T21:33:15.238Z,2.11
2019-01-10T21:35:39.666Z,2.43
2019-01-10T21:38:04.516Z,2.08
2019-01-10T21:40:30.564Z,2.28
2019-01-10T21:42:54.994Z,2.50
2019-01-10T21:45:20.042Z,2.03
2019-01-10T21:47:44.488Z,1.93
2019-01-10T21:50:14.578Z,1.84
2019-01-10T21:52:39.031Z,2.12
2019-01-10T21:55:05.411Z,1.81
2019-01-10T21:57:30.473Z,2.07
2019-01-10T21:59:55.034Z,2.23
2019-01-10T22:02:20.091Z,2.31
2019-01-10T22:04:44.505Z,2.31
2019-01-10T22:07:08.933Z,2.45
2019-01-10T22:09:33.334Z,2.10
2019-01-10T22:11:57.767Z,2.03
2019-01-10T22:14:22.153Z,2.16
2019-01-10T22:16:46.554Z,2.24
2019-01-10T22:19:16.509Z,2.08
2019-01-10T22:21:37.093Z,2.23
2019-01-10T22:24:01.523Z,2.47
2019-01-10T22:26:25.927Z,2.85
2019-01-10T22:28:50.336Z,2.80
2019-01-10T22:31:14.819Z,2.70
2019-01-10T22:33:39.223Z,3.08
2019-01-10T22:36:03.714Z,3.25
2019-01-10T22:38:28.106Z,3.09
2019-01-10T22:40:52.515Z,3.24
2019-01-10T22:43:16.955Z,3.43
2019-01-10T22:45:41.369Z,3.34
2019-01-10T22:48:05.793Z,3.31
2019-01-10T22:50:30.798Z,3.34
2019-01-10T22:52:55.203Z,3.01
2019-01-10T22:55:20.061Z,3.51
2019-01-10T22:57:44.515Z,3.60
2019-01-10T23:00:23.610Z,3.29
2019-01-10T23:02:49.824Z,3.52
2019-01-10T23:05:14.295Z,3.07
2019-01-10T23:07:38.744Z,3.16
2019-01-10T23:10:03.883Z,3.33
2019-01-10T23:12:31.648Z,3.23
2019-01-10T23:14:56.053Z,3.26
2019-01-10T23:17:20.470Z,3.19
2019-01-10T23:19:46.424Z,3.56
2019-01-10T23:22:13.087Z,3.27
2019-01-10T23:24:37.511Z,3.42
2019-01-10T23:27:01.946Z,3.55
2019-01-10T23:29:28.082Z,3.17
2019-01-10T23:31:52.727Z,2.86
2019-01-10T23:34:17.129Z,2.90
2019-01-10T23:36:41.618Z,2.81
2019-01-10T23:39:14.379Z,3.14
2019-01-10T23:41:38.789Z,3.20
2019-01-10T23:44:03.207Z,3.16
2019-01-10T23:46:27.611Z,2.81
2019-01-10T23:48:52.051Z,3.28
2019-01-10T23:51:16.453Z,3.05
2019-01-10T23:53:40.907Z,2.75
2019-01-10T23:56:05.361Z,2.99
2019-01-10T23:58:29.770Z,2.65
